createdAt,value
2023-02-26T00:01:02.868Z,77.21
2023-02-26T00:03:30.647Z,76.94
2023-02-26T00:06:01.362Z,77.07
2023-02-26T00:08:31.492Z,77.57
2023-02-26T00:11:01.837Z,77.88
2023-02-26T00:13:31.748Z,77.60
2023-02-26T00:16:02.060Z,77.18
2023-02-26T00:18:30.670Z,78.58
2023-02-26T00:20:58.762Z,78.54
2023-02-26T00:23:27.471Z,77.87
2023-02-26T00:25:55.144Z,78.25
2023-02-26T00:28:23.530Z,77.35
2023-02-26T00:30:54.089Z,77.10
2023-02-26T00:33:22.490Z,77.20
2023-02-26T00:35:57.216Z,77.32
2023-02-26T00:38:25.671Z,76.88
2023-02-26T00:40:55.565Z,76.99
2023-02-26T00:43:26.594Z,76.62
2023-02-26T00:46:08.290Z,77.33
2023-02-26T00:48:48.444Z,77.41
2023-02-26T00:51:21.945Z,77.80
2023-02-26T00:53:59.142Z,78.06
2023-02-26T00:56:26.855Z,78.58
2023-02-26T00:58:54.671Z,78.32
2023-02-26T01:01:23.594Z,77.97
2023-02-26T01:03:52.018Z,77.93
2023-02-26T01:06:22.695Z,77.42
2023-02-26T01:08:58.195Z,76.78
2023-02-26T01:11:26.263Z,77.10
2023-02-26T01:13:54.544Z,76.39
2023-02-26T01:16:28.848Z,76.52
2023-02-26T01:19:03.831Z,76.79
2023-02-26T01:21:35.810Z,77.34
2023-02-26T01:24:07.685Z,77.53
2023-02-26T01:26:35.954Z,77.13
2023-02-26T01:29:05.031Z,76.75
2023-02-26T01:31:42.545Z,77.21
2023-02-26T01:34:19.609Z,77.74
2023-02-26T01:36:55.634Z,78.20
2023-02-26T01:39:30.472Z,78.33
2023-02-26T01:42:04.771Z,78.69
2023-02-26T01:44:37.752Z,78.89
2023-02-26T01:47:17.007Z,79.21
2023-02-26T01:49:46.347Z,79.53
2023-02-26T01:53:06.297Z,79.98
2023-02-26T01:55:34.876Z,79.94
2023-02-26T01:58:05.890Z,79.42
2023-02-26T02:00:33.816Z,79.02
2023-02-26T02:03:03.276Z,79.52
2023-02-26T02:05:40.359Z,80.07
2023-02-26T02:08:08.400Z,79.81
2023-02-26T02:10:36.568Z,80.21
2023-02-26T02:13:08.908Z,79.11
2023-02-26T02:15:45.480Z,79.10
2023-02-26T02:18:22.816Z,78.55
2023-02-26T02:21:11.611Z,78.58
2023-02-26T02:23:44.302Z,78.67
2023-02-26T02:26:51.281Z,78.65
2023-02-26T02:29:35.265Z,77.95
2023-02-26T02:32:09.947Z,77.74
2023-02-26T02:34:42.941Z,77.95
2023-02-26T02:37:17.316Z,78.09
2023-02-26T02:39:50.219Z,78.15
2023-02-26T02:42:24.457Z,78.40
2023-02-26T02:44:57.615Z,78.20
2023-02-26T02:47:30.217Z,78.15
2023-02-26T02:50:06.605Z,77.98
2023-02-26T02:52:52.271Z,77.61
2023-02-26T02:55:23.348Z,77.70
2023-02-26T02:57:54.814Z,77.62
2023-02-26T03:00:25.246Z,76.69
2023-02-26T03:03:00.491Z,76.70
2023-02-26T03:05:28.684Z,76.79
2023-02-26T03:07:59.987Z,76.69
2023-02-26T03:10:28.225Z,76.25
2023-02-26T03:12:55.918Z,77.22
2023-02-26T03:15:34.425Z,76.64
2023-02-26T03:18:14.010Z,77.04
2023-02-26T03:20:53.852Z,76.74
2023-02-26T03:23:24.916Z,76.82
2023-02-26T03:25:57.267Z,76.74
2023-02-26T03:28:31.277Z,76.77
2023-02-26T03:31:08.632Z,76.40
2023-02-26T03:33:45.756Z,75.99
2023-02-26T03:36:22.598Z,75.96
2023-02-26T03:39:09.599Z,76.04
2023-02-26T03:41:41.985Z,75.89
2023-02-26T03:44:14.505Z,76.21
2023-02-26T03:46:47.624Z,76.67
2023-02-26T03:49:22.460Z,76.82
2023-02-26T03:51:53.004Z,77.00
2023-02-26T03:54:52.072Z,76.38
2023-02-26T03:57:40.729Z,76.38
2023-02-26T04:00:21.427Z,76.11
2023-02-26T04:02:55.849Z,77.08
2023-02-26T04:05:28.886Z,76.27
2023-02-26T04:07:58.775Z,77.11
2023-02-26T04:10:34.152Z,76.12
2023-02-26T04:13:02.786Z,76.72
2023-02-26T04:15:30.497Z,76.59
2023-02-26T04:17:58.157Z,76.40
2023-02-26T04:20:30.414Z,76.46
2023-02-26T04:22:58.072Z,76.81
2023-02-26T04:25:25.652Z,76.95
2023-02-26T04:27:54.147Z,76.66
2023-02-26T04:30:22.551Z,75.93
2023-02-26T04:32:50.475Z,75.91
2023-02-26T04:35:19.167Z,75.98
2023-02-26T04:37:48.319Z,75.75
2023-02-26T04:40:17.319Z,75.72
2023-02-26T04:42:47.268Z,76.20
2023-02-26T04:45:19.975Z,75.82
2023-02-26T04:47:47.540Z,75.82
2023-02-26T04:50:15.890Z,75.86
2023-02-26T04:52:45.361Z,75.70
2023-02-26T04:55:14.911Z,75.86
2023-02-26T04:57:43.671Z,75.32
2023-02-26T05:00:13.168Z,76.13
2023-02-26T05:02:41.318Z,75.94
2023-02-26T05:05:10.290Z,75.74
2023-02-26T05:07:38.499Z,75.02
2023-02-26T05:10:08.312Z,75.92
2023-02-26T05:12:38.065Z,75.67
2023-02-26T05:15:07.018Z,75.61
2023-02-26T05:17:34.620Z,75.16
2023-02-26T05:20:02.540Z,75.29
2023-02-26T05:22:30.784Z,74.90
2023-02-26T05:24:58.438Z,74.75
2023-02-26T05:27:26.417Z,75.32
2023-02-26T05:29:55.330Z,75.12
2023-02-26T05:32:24.164Z,75.28
2023-02-26T05:34:51.833Z,75.51
2023-02-26T05:37:19.710Z,75.29
2023-02-26T05:39:47.292Z,75.40
2023-02-26T05:42:16.589Z,75.37
2023-02-26T05:44:44.160Z,75.59
2023-02-26T05:47:13.451Z,75.50
2023-02-26T05:49:41.070Z,75.20
2023-02-26T05:52:09.468Z,75.15
2023-02-26T05:54:37.008Z,74.97
2023-02-26T05:57:05.056Z,75.43
2023-02-26T05:59:32.652Z,75.72
2023-02-26T06:02:00.644Z,75.39
2023-02-26T06:04:29.550Z,75.81
2023-02-26T06:06:57.511Z,75.61
2023-02-26T06:09:25.062Z,75.13
2023-02-26T06:11:54.031Z,75.53
2023-02-26T06:14:21.599Z,75.47
2023-02-26T06:16:49.956Z,75.21
2023-02-26T06:19:17.546Z,75.45
2023-02-26T06:21:46.989Z,75.07
2023-02-26T06:24:14.590Z,75.25
2023-02-26T06:26:42.162Z,75.38
2023-02-26T06:29:09.849Z,75.40
2023-02-26T06:31:37.702Z,75.66
2023-02-26T06:34:05.809Z,75.60
2023-02-26T06:36:33.408Z,75.06
2023-02-26T06:39:03.032Z,75.03
2023-02-26T06:41:30.577Z,74.83
2023-02-26T06:43:58.164Z,74.91
2023-02-26T06:46:26.112Z,75.25
2023-02-26T06:48:54.203Z,75.38
2023-02-26T06:51:21.774Z,75.26
2023-02-26T06:53:49.453Z,74.93
2023-02-26T06:56:18.572Z,74.51
2023-02-26T06:58:46.352Z,74.18
2023-02-26T07:01:13.959Z,74.68
2023-02-26T07:03:41.831Z,74.77
2023-02-26T07:06:38.638Z,74.56
2023-02-26T07:09:00.328Z,74.38
2023-02-26T07:11:29.224Z,73.99
2023-02-26T07:13:57.416Z,73.95
2023-02-26T07:16:25.419Z,73.08
2023-02-26T07:18:53.626Z,73.37
2023-02-26T07:21:21.211Z,73.15
2023-02-26T07:23:49.396Z,72.87
2023-02-26T07:26:17.556Z,72.80
2023-02-26T07:28:46.722Z,72.20
2023-02-26T07:31:16.556Z,72.15
2023-02-26T07:33:44.836Z,72.15
2023-02-26T07:36:12.398Z,71.91
2023-02-26T07:38:40.407Z,72.14
2023-02-26T07:41:08.008Z,72.44
2023-02-26T07:43:35.626Z,72.45
2023-02-26T07:46:05.179Z,72.47
2023-02-26T07:48:33.740Z,72.31
2023-02-26T07:51:01.458Z,71.82
2023-02-26T07:53:29.023Z,72.50
2023-02-26T07:55:56.598Z,70.95
2023-02-26T07:58:25.107Z,71.78
2023-02-26T08:00:53.279Z,70.16
2023-02-26T08:03:22.784Z,70.24
2023-02-26T08:05:50.367Z,68.83
2023-02-26T08:08:17.923Z,67.78
2023-02-26T08:10:45.822Z,67.42
2023-02-26T08:13:13.372Z,66.87
2023-02-26T08:15:43.862Z,66.11
2023-02-26T08:18:11.590Z,65.19
2023-02-26T08:20:40.929Z,65.40
2023-02-26T08:23:08.490Z,64.89
2023-02-26T08:25:36.381Z,64.34
2023-02-26T08:28:04.152Z,64.79
2023-02-26T08:30:32.447Z,64.53
2023-02-26T08:33:00.034Z,62.11
2023-02-26T08:35:28.132Z,62.27
2023-02-26T08:37:57.207Z,60.90
2023-02-26T08:40:25.226Z,61.56
2023-02-26T08:42:53.548Z,62.43
2023-02-26T08:45:21.195Z,62.27
2023-02-26T08:47:56.742Z,61.62
2023-02-26T08:50:25.317Z,61.72
2023-02-26T08:52:53.051Z,62.02
2023-02-26T08:55:22.815Z,62.39
2023-02-26T08:57:50.401Z,62.48
2023-02-26T09:00:18.560Z,63.21
2023-02-26T09:02:46.865Z,63.97
2023-02-26T09:05:15.723Z,63.84
2023-02-26T09:07:43.917Z,64.45
2023-02-26T09:10:14.253Z,65.24
2023-02-26T09:12:43.222Z,66.29
2023-02-26T09:15:12.575Z,66.07
2023-02-26T09:17:41.212Z,65.46
2023-02-26T09:20:11.421Z,65.48
2023-02-26T09:22:39.080Z,65.70
2023-02-26T09:25:08.174Z,64.24
2023-02-26T09:27:36.264Z,64.89
2023-02-26T09:30:06.926Z,65.24
2023-02-26T09:32:34.782Z,64.39
2023-02-26T09:35:04.470Z,64.92
2023-02-26T09:37:32.632Z,63.54
2023-02-26T09:40:01.144Z,64.32
2023-02-26T09:42:43.587Z,64.14
2023-02-26T09:45:21.320Z,63.88
2023-02-26T09:47:52.772Z,64.61
2023-02-26T09:50:25.092Z,65.19
2023-02-26T09:52:57.835Z,65.97
2023-02-26T09:55:30.975Z,66.19
2023-02-26T09:58:02.119Z,66.83
2023-02-26T10:00:38.329Z,67.96
2023-02-26T10:03:20.675Z,66.97
2023-02-26T10:06:14.121Z,69.42
2023-02-26T10:08:57.293Z,70.08
2023-02-26T10:11:32.769Z,69.89
2023-02-26T10:14:04.960Z,70.84
2023-02-26T10:16:41.170Z,70.21
2023-02-26T10:19:20.214Z,70.50
2023-02-26T10:21:52.873Z,70.77
2023-02-26T10:24:25.650Z,71.54
2023-02-26T10:27:01.541Z,71.53
2023-02-26T10:29:35.514Z,70.68
2023-02-26T10:32:19.602Z,70.99
2023-02-26T10:34:52.484Z,70.34
2023-02-26T10:37:25.140Z,71.30
2023-02-26T10:39:57.751Z,70.82
2023-02-26T10:42:29.838Z,71.44
2023-02-26T10:45:10.497Z,71.40
2023-02-26T10:47:47.812Z,71.50
2023-02-26T10:50:17.146Z,71.05
2023-02-26T10:52:47.007Z,71.10
2023-02-26T10:55:26.112Z,71.00
2023-02-26T10:58:06.867Z,71.29
2023-02-26T11:00:36.163Z,70.40
2023-02-26T11:03:08.241Z,70.56
2023-02-26T11:05:36.331Z,70.58
2023-02-26T11:08:06.803Z,69.68
2023-02-26T11:10:45.813Z,68.59
2023-02-26T11:13:13.928Z,68.93
2023-02-26T11:15:42.045Z,68.23
2023-02-26T11:18:18.022Z,67.80
2023-02-26T11:20:47.809Z,68.07
2023-02-26T11:23:18.779Z,68.04
2023-02-26T11:25:47.132Z,68.66
2023-02-26T11:28:24.146Z,69.02
2023-02-26T11:30:54.341Z,68.27
2023-02-26T11:33:30.099Z,68.50
2023-02-26T11:36:01.146Z,68.80
2023-02-26T11:38:30.049Z,68.19
2023-02-26T11:40:59.083Z,67.49
2023-02-26T11:43:34.823Z,67.15
2023-02-26T11:46:05.514Z,67.15
2023-02-26T11:48:41.573Z,67.21
2023-02-26T11:51:14.305Z,68.01
2023-02-26T11:53:45.231Z,67.26
2023-02-26T11:56:15.630Z,67.41
2023-02-26T11:58:46.912Z,67.81
2023-02-26T12:01:17.573Z,69.24
2023-02-26T12:03:51.135Z,68.20
2023-02-26T12:06:20.290Z,67.83
2023-02-26T12:08:49.307Z,67.89
2023-02-26T12:11:46.643Z,68.67
2023-02-26T12:14:35.129Z,69.56
2023-02-26T12:17:17.118Z,70.16
2023-02-26T12:19:53.358Z,70.53
2023-02-26T12:22:35.181Z,70.21
2023-02-26T12:25:28.762Z,70.28
2023-02-26T12:28:23.999Z,70.82
2023-02-26T12:31:15.595Z,71.63
2023-02-26T12:33:56.557Z,72.50
2023-02-26T12:36:48.383Z,72.29
2023-02-26T12:39:32.590Z,71.22
2023-02-26T12:42:16.392Z,68.19
2023-02-26T12:45:03.140Z,65.65
2023-02-26T12:47:45.168Z,64.56
2023-02-26T12:50:37.702Z,62.23
2023-02-26T12:53:25.739Z,62.65
2023-02-26T12:56:06.213Z,64.59
2023-02-26T12:58:48.546Z,65.79
2023-02-26T13:01:38.710Z,66.13
2023-02-26T13:04:25.346Z,66.14
2023-02-26T13:07:12.403Z,64.42
2023-02-26T13:09:56.365Z,63.88
2023-02-26T13:12:37.701Z,62.29
2023-02-26T13:15:25.587Z,61.36
2023-02-26T13:18:01.346Z,60.94
2023-02-26T13:20:29.954Z,60.68
2023-02-26T13:23:02.858Z,60.83
2023-02-26T13:25:37.808Z,60.75
2023-02-26T13:28:24.606Z,61.62
2023-02-26T13:30:56.616Z,59.85
2023-02-26T13:33:29.601Z,62.47
2023-02-26T13:35:59.795Z,65.70
2023-02-26T13:38:37.035Z,69.54
2023-02-26T13:41:12.913Z,72.43
2023-02-26T13:44:02.640Z,73.22
2023-02-26T13:46:47.201Z,74.74
2023-02-26T13:49:21.146Z,74.24
2023-02-26T13:51:50.571Z,74.04
2023-02-26T13:54:34.352Z,73.92
2023-02-26T13:57:21.997Z,73.64
2023-02-26T13:59:56.638Z,73.26
2023-02-26T14:02:47.886Z,73.15
2023-02-26T14:05:46.422Z,72.48
2023-02-26T14:08:45.279Z,71.16
2023-02-26T14:11:35.132Z,69.01
2023-02-26T14:14:13.835Z,67.98
2023-02-26T14:16:44.434Z,67.59
2023-02-26T14:19:25.013Z,66.56
2023-02-26T14:21:57.593Z,65.38
2023-02-26T14:24:36.949Z,65.46
2023-02-26T14:27:10.307Z,61.06
2023-02-26T14:29:42.996Z,60.60
2023-02-26T14:32:16.556Z,60.11
2023-02-26T14:34:51.917Z,58.74
2023-02-26T14:37:23.940Z,60.31
2023-02-26T14:39:57.252Z,61.32
2023-02-26T14:42:34.349Z,61.93
2023-02-26T14:45:14.978Z,60.36
2023-02-26T14:47:45.355Z,60.06
2023-02-26T14:50:17.822Z,59.87
2023-02-26T14:53:16.008Z,60.40
2023-02-26T14:56:00.786Z,60.20
2023-02-26T14:58:42.117Z,61.46
2023-02-26T15:01:24.981Z,61.00
2023-02-26T15:04:22.366Z,59.72
2023-02-26T15:07:04.733Z,58.14
2023-02-26T15:09:47.618Z,58.04
2023-02-26T15:12:27.437Z,57.64
2023-02-26T15:15:11.313Z,58.75
2023-02-26T15:17:56.071Z,57.61
2023-02-26T15:20:32.671Z,59.64
2023-02-26T15:23:19.181Z,59.45
2023-02-26T15:25:50.449Z,58.49
2023-02-26T15:28:23.862Z,58.80
2023-02-26T15:30:52.737Z,58.26
2023-02-26T15:33:24.479Z,60.21
2023-02-26T15:35:53.553Z,60.22
2023-02-26T15:38:21.839Z,60.45
2023-02-26T15:40:53.161Z,59.53
2023-02-26T15:43:25.477Z,59.47
2023-02-26T15:45:55.465Z,59.31
2023-02-26T15:48:30.383Z,57.82
2023-02-26T15:51:02.249Z,59.15
2023-02-26T15:53:33.200Z,61.49
2023-02-26T15:56:03.227Z,61.68
2023-02-26T15:58:37.151Z,63.40
2023-02-26T16:01:07.393Z,65.25
2023-02-26T16:03:39.042Z,67.24
2023-02-26T16:06:12.466Z,66.77
2023-02-26T16:08:40.649Z,67.22
2023-02-26T16:11:09.306Z,67.78
2023-02-26T16:13:42.505Z,68.06
2023-02-26T16:16:16.585Z,68.25
2023-02-26T16:18:46.363Z,67.47
2023-02-26T16:21:23.996Z,67.34
2023-02-26T16:23:55.043Z,67.75
2023-02-26T16:26:27.943Z,67.88
2023-02-26T16:29:00.425Z,67.50
2023-02-26T16:31:31.063Z,68.12
2023-02-26T16:34:02.676Z,68.66
2023-02-26T16:36:32.999Z,67.70
2023-02-26T16:39:11.352Z,68.49
2023-02-26T16:41:41.661Z,67.16
2023-02-26T16:44:40.452Z,67.77
2023-02-26T16:47:10.605Z,67.58
2023-02-26T16:49:42.155Z,68.34
2023-02-26T16:52:17.217Z,67.91
2023-02-26T16:54:52.527Z,68.45
2023-02-26T16:57:25.078Z,69.49
2023-02-26T16:59:56.839Z,70.78
2023-02-26T17:02:27.464Z,73.95
2023-02-26T17:05:03.825Z,76.60
2023-02-26T17:07:34.328Z,77.01
2023-02-26T17:10:09.310Z,78.06
2023-02-26T17:12:45.670Z,77.95
2023-02-26T17:15:20.681Z,77.17
2023-02-26T17:17:48.581Z,76.39
2023-02-26T17:20:18.243Z,75.55
2023-02-26T17:22:46.072Z,75.72
2023-02-26T17:25:18.650Z,75.27
2023-02-26T17:27:46.954Z,75.24
2023-02-26T17:30:17.331Z,75.04
2023-02-26T17:32:45.490Z,74.72
2023-02-26T17:35:14.017Z,74.96
2023-02-26T17:37:44.230Z,75.28
2023-02-26T17:40:20.136Z,75.35
2023-02-26T17:42:48.924Z,75.28
2023-02-26T17:45:16.873Z,74.58
2023-02-26T17:47:46.773Z,74.31
2023-02-26T17:50:25.820Z,73.74
2023-02-26T17:52:55.450Z,74.63
2023-02-26T17:55:23.066Z,73.41
2023-02-26T17:57:51.026Z,72.92
2023-02-26T18:00:20.003Z,72.84
2023-02-26T18:02:47.692Z,73.00
2023-02-26T18:05:15.739Z,73.40
2023-02-26T18:07:43.599Z,73.08
2023-02-26T18:10:18.142Z,73.00
2023-02-26T18:12:45.800Z,72.77
2023-02-26T18:15:13.693Z,73.49
2023-02-26T18:17:41.515Z,73.15
2023-02-26T18:20:16.374Z,73.54
2023-02-26T18:22:44.457Z,74.34
2023-02-26T18:25:14.712Z,74.09
2023-02-26T18:27:42.505Z,74.43
2023-02-26T18:30:23.380Z,74.52
2023-02-26T18:32:53.189Z,74.75
2023-02-26T18:35:26.421Z,75.31
2023-02-26T18:37:57.182Z,75.53
2023-02-26T18:40:28.572Z,75.59
2023-02-26T18:42:57.196Z,75.97
2023-02-26T18:45:25.976Z,75.53
2023-02-26T18:47:54.386Z,75.94
2023-02-26T18:50:24.875Z,76.42
2023-02-26T18:52:52.654Z,76.02
2023-02-26T18:55:21.524Z,75.98
2023-02-26T18:57:51.748Z,76.21
2023-02-26T19:00:24.009Z,75.95
2023-02-26T19:02:53.985Z,76.76
2023-02-26T19:05:24.653Z,76.73
2023-02-26T19:07:52.751Z,76.15
2023-02-26T19:10:20.507Z,76.25
2023-02-26T19:12:48.191Z,76.28
2023-02-26T19:15:18.502Z,76.57
2023-02-26T19:17:46.658Z,76.89
2023-02-26T19:20:14.950Z,78.07
2023-02-26T19:22:43.594Z,76.75
2023-02-26T19:25:11.290Z,76.39
2023-02-26T19:27:39.643Z,77.48
2023-02-26T19:30:10.431Z,76.83
2023-02-26T19:32:39.676Z,77.06
2023-02-26T19:35:08.759Z,77.97
2023-02-26T19:37:36.626Z,77.71
2023-02-26T19:40:09.715Z,77.36
2023-02-26T19:42:37.746Z,78.03
2023-02-26T19:45:06.661Z,77.76
2023-02-26T19:47:34.238Z,78.61
2023-02-26T19:50:03.445Z,79.58
2023-02-26T19:52:31.651Z,79.03
2023-02-26T19:54:59.403Z,78.87
2023-02-26T19:57:28.440Z,78.93
2023-02-26T19:59:56.634Z,78.57
2023-02-26T20:02:24.244Z,78.75
2023-02-26T20:04:51.859Z,78.74
2023-02-26T20:07:20.783Z,77.82
2023-02-26T20:09:49.890Z,78.10
2023-02-26T20:12:17.494Z,78.66
2023-02-26T20:14:45.306Z,78.37
2023-02-26T20:17:12.883Z,79.28
2023-02-26T20:19:40.912Z,78.79
2023-02-26T20:22:08.455Z,79.35
2023-02-26T20:24:38.155Z,78.50
2023-02-26T20:27:07.054Z,77.72
2023-02-26T20:29:34.741Z,78.06
2023-02-26T20:32:02.513Z,77.69
2023-02-26T20:34:30.943Z,77.81
2023-02-26T20:36:58.564Z,77.52
2023-02-26T20:39:26.447Z,77.62
2023-02-26T20:41:55.356Z,78.15
2023-02-26T20:44:22.918Z,77.27
2023-02-26T20:46:50.545Z,78.09
2023-02-26T20:49:18.466Z,77.79
2023-02-26T20:51:46.045Z,77.75
2023-02-26T20:54:15.264Z,77.60
2023-02-26T20:56:42.823Z,77.22
2023-02-26T20:59:12.148Z,77.36
2023-02-26T21:01:39.863Z,77.26
2023-02-26T21:04:09.837Z,78.16
2023-02-26T21:06:38.296Z,77.37
2023-02-26T21:09:08.631Z,77.72
2023-02-26T21:11:37.161Z,77.84
2023-02-26T21:14:07.354Z,77.19
2023-02-26T21:16:36.533Z,77.47
2023-02-26T21:19:04.746Z,77.51
2023-02-26T21:21:32.781Z,77.44
2023-02-26T21:24:00.600Z,77.74
2023-02-26T21:26:28.552Z,77.40
2023-02-26T21:28:56.216Z,77.37
2023-02-26T21:31:24.199Z,76.75
2023-02-26T21:33:53.119Z,77.38
2023-02-26T21:36:21.834Z,77.52
2023-02-26T21:38:49.583Z,77.36
2023-02-26T21:41:17.543Z,77.38
2023-02-26T21:43:45.097Z,77.85
2023-02-26T21:46:13.057Z,76.98
2023-02-26T21:48:40.769Z,76.91
2023-02-26T21:51:10.088Z,76.71
2023-02-26T21:53:37.702Z,76.52
2023-02-26T21:56:06.032Z,77.11
2023-02-26T21:58:33.660Z,76.85
2023-02-26T22:01:01.577Z,76.72
2023-02-26T22:03:29.598Z,76.90
2023-02-26T22:05:57.770Z,76.85
2023-02-26T22:08:26.680Z,76.52
2023-02-26T22:10:54.617Z,76.39
2023-02-26T22:13:22.183Z,76.96
2023-02-26T22:15:49.786Z,77.69
2023-02-26T22:18:17.343Z,77.15
2023-02-26T22:20:45.056Z,77.42
2023-02-26T22:23:12.614Z,77.90
2023-02-26T22:25:41.973Z,77.90
2023-02-26T22:28:09.706Z,78.31
2023-02-26T22:30:37.996Z,77.98
2023-02-26T22:33:05.815Z,77.75
2023-02-26T22:35:33.637Z,77.91
2023-02-26T22:38:01.270Z,77.84
2023-02-26T22:40:28.903Z,77.86
2023-02-26T22:42:58.650Z,77.04
2023-02-26T22:45:26.252Z,77.48
2023-02-26T22:47:53.992Z,77.20
2023-02-26T22:50:21.602Z,77.76
2023-02-26T22:52:49.598Z,76.91
2023-02-26T22:55:17.353Z,76.87
2023-02-26T22:57:45.102Z,76.66
2023-02-26T23:00:18.592Z,76.61
2023-02-26T23:02:47.796Z,76.59
2023-02-26T23:05:15.767Z,76.32
2023-02-26T23:07:44.022Z,76.87
2023-02-26T23:10:14.692Z,76.82
2023-02-26T23:12:43.009Z,76.51
2023-02-26T23:15:12.110Z,76.96
2023-02-26T23:17:42.021Z,76.87
2023-02-26T23:20:13.642Z,76.01
2023-02-26T23:22:43.566Z,76.78
2023-02-26T23:25:11.942Z,76.44
2023-02-26T23:27:40.377Z,76.32
2023-02-26T23:30:09.221Z,76.70
2023-02-26T23:32:37.708Z,76.55
2023-02-26T23:35:07.610Z,76.87
2023-02-26T23:37:35.589Z,76.83
2023-02-26T23:40:04.007Z,76.97
2023-02-26T23:42:31.887Z,76.79
2023-02-26T23:44:59.479Z,77.34
2023-02-26T23:47:27.934Z,78.27
2023-02-26T23:49:55.572Z,78.13
2023-02-26T23:52:25.861Z,77.70
2023-02-26T23:54:54.367Z,77.37
2023-02-26T23:57:22.198Z,77.29
2023-02-26T23:59:49.859Z,77.16
